createdAt,value
2019-04-25T00:01:43.919Z,17.81
2019-04-25T00:04:15.951Z,17.83
2019-04-25T00:06:47.183Z,17.82
2019-04-25T00:09:21.882Z,17.81
2019-04-25T00:11:53.257Z,17.85
2019-04-25T00:14:24.560Z,17.88
2019-04-25T00:16:55.926Z,17.91
2019-04-25T00:19:27.107Z,17.90
2019-04-25T00:22:07.684Z,17.87
2019-04-25T00:24:47.255Z,17.84
2019-04-25T00:27:19.730Z,17.79
2019-04-25T00:29:51.670Z,17.75
2019-04-25T00:32:23.086Z,17.70
2019-04-25T00:34:54.435Z,17.69
2019-04-25T00:37:25.791Z,17.62
2019-04-25T00:39:57.014Z,17.55
2019-04-25T00:42:28.262Z,17.50
2019-04-25T00:44:59.568Z,17.38
2019-04-25T00:47:31.554Z,17.30
2019-04-25T00:50:02.904Z,17.22
2019-04-25T00:52:34.112Z,17.17
2019-04-25T00:55:05.580Z,17.10
2019-04-25T00:57:38.908Z,17.00
2019-04-25T01:00:46.979Z,16.92
2019-04-25T01:03:23.714Z,16.86
2019-04-25T01:05:54.920Z,16.76
2019-04-25T01:08:26.421Z,16.68
2019-04-25T01:10:57.691Z,16.63
2019-04-25T01:13:28.833Z,16.63
2019-04-25T01:15:59.981Z,16.61
2019-04-25T01:18:31.487Z,16.60
2019-04-25T01:21:04.329Z,16.58
2019-04-25T01:23:37.299Z,16.55
2019-04-25T01:26:08.670Z,16.51
2019-04-25T01:28:39.966Z,16.48
2019-04-25T01:31:14.779Z,16.46
2019-04-25T01:33:46.778Z,16.43
2019-04-25T01:36:33.415Z,16.39
2019-04-25T01:39:15.954Z,16.32
2019-04-25T01:41:56.359Z,16.37
2019-04-25T01:44:31.496Z,16.31
2019-04-25T01:47:04.185Z,16.29
2019-04-25T01:49:35.438Z,16.27
2019-04-25T01:52:06.952Z,16.26
2019-04-25T01:54:38.262Z,16.26
2019-04-25T01:57:09.927Z,16.24
2019-04-25T01:59:41.149Z,16.21
2019-04-25T02:02:15.148Z,16.21
2019-04-25T02:04:46.507Z,16.20
2019-04-25T02:07:17.681Z,16.17
2019-04-25T02:09:48.944Z,16.16
2019-04-25T02:12:43.693Z,16.11
2019-04-25T02:15:16.583Z,16.09
2019-04-25T02:17:47.744Z,16.05
2019-04-25T02:20:18.982Z,16.03
2019-04-25T02:22:50.197Z,16.00
2019-04-25T02:25:22.995Z,15.98
2019-04-25T02:27:55.722Z,15.98
2019-04-25T02:30:27.669Z,15.97
2019-04-25T02:33:02.769Z,15.97
2019-04-25T02:35:35.015Z,15.97
2019-04-25T02:38:08.791Z,15.97
2019-04-25T02:40:39.819Z,15.97
2019-04-25T02:43:11.060Z,15.96
2019-04-25T02:46:07.429Z,15.94
2019-04-25T02:49:01.405Z,15.93
2019-04-25T02:51:44.976Z,15.91
2019-04-25T02:54:15.626Z,15.89
2019-04-25T02:56:46.902Z,15.88
2019-04-25T02:59:18.054Z,15.87
2019-04-25T03:01:49.449Z,15.85
2019-04-25T03:04:20.638Z,15.83
2019-04-25T03:06:51.896Z,15.82
2019-04-25T03:09:24.959Z,15.80
2019-04-25T03:11:55.928Z,15.77
2019-04-25T03:14:27.089Z,15.76
2019-04-25T03:16:59.202Z,15.71
2019-04-25T03:19:54.224Z,15.69
2019-04-25T03:22:28.286Z,15.55
2019-04-25T03:25:02.240Z,15.55
2019-04-25T03:27:34.035Z,15.58
2019-04-25T03:30:11.259Z,15.54
2019-04-25T03:32:39.878Z,15.53
2019-04-25T03:35:11.159Z,15.50
2019-04-25T03:37:43.610Z,15.47
2019-04-25T03:40:14.868Z,15.44
2019-04-25T03:42:46.091Z,15.42
2019-04-25T03:45:17.336Z,15.39
2019-04-25T03:47:48.558Z,15.37
2019-04-25T03:50:19.811Z,15.29
2019-04-25T03:52:50.952Z,15.29
2019-04-25T03:55:23.969Z,15.24
2019-04-25T03:57:56.347Z,15.20
2019-04-25T04:00:27.630Z,15.19
2019-04-25T04:03:00.628Z,15.17
2019-04-25T04:05:31.881Z,15.16
2019-04-25T04:08:04.316Z,15.14
2019-04-25T04:10:35.905Z,15.09
2019-04-25T04:13:07.487Z,15.07
2019-04-25T04:15:39.696Z,15.04
2019-04-25T04:18:29.809Z,15.02
2019-04-25T04:21:19.867Z,15.00
2019-04-25T04:24:07.522Z,14.97
2019-04-25T04:26:38.670Z,14.95
2019-04-25T04:29:10.083Z,14.94
2019-04-25T04:31:43.086Z,14.93
2019-04-25T04:34:15.552Z,14.93
2019-04-25T04:36:46.841Z,14.93
2019-04-25T04:39:18.806Z,14.93
2019-04-25T04:41:50.072Z,14.93
2019-04-25T04:44:21.287Z,14.92
2019-04-25T04:46:53.843Z,14.93
2019-04-25T04:49:25.030Z,14.93
2019-04-25T04:51:56.315Z,14.93
2019-04-25T04:54:27.440Z,14.96
2019-04-25T04:56:58.613Z,14.96
2019-04-25T04:59:29.879Z,14.96
2019-04-25T05:02:23.553Z,14.94
2019-04-25T05:05:24.766Z,14.94
2019-04-25T05:08:16.406Z,14.94
2019-04-25T05:10:48.078Z,14.96
2019-04-25T05:13:19.831Z,15.00
2019-04-25T05:15:51.102Z,15.02
2019-04-25T05:18:34.553Z,15.06
2019-04-25T05:20:55.260Z,15.09
2019-04-25T05:23:26.667Z,15.11
2019-04-25T05:25:57.869Z,15.15
2019-04-25T05:28:29.075Z,15.15
2019-04-25T05:31:18.161Z,15.18
2019-04-25T05:33:49.378Z,15.19
2019-04-25T05:36:20.654Z,15.19
2019-04-25T05:38:51.919Z,15.20
2019-04-25T05:41:36.011Z,15.24
2019-04-25T05:44:07.289Z,15.25
2019-04-25T05:46:38.524Z,15.28
2019-04-25T05:49:09.708Z,15.31
2019-04-25T05:51:40.909Z,15.35
2019-04-25T05:54:13.971Z,15.38
2019-04-25T05:56:45.073Z,15.41
2019-04-25T05:59:17.939Z,15.44
2019-04-25T06:01:49.626Z,15.49
2019-04-25T06:04:21.033Z,15.52
2019-04-25T06:06:53.050Z,15.57
2019-04-25T06:09:54.441Z,15.61
2019-04-25T06:12:48.867Z,15.65
2019-04-25T06:15:23.727Z,15.69
2019-04-25T06:18:14.527Z,15.73
2019-04-25T06:20:45.919Z,15.78
2019-04-25T06:23:41.860Z,15.85
2019-04-25T06:26:22.841Z,15.90
2019-04-25T06:28:53.779Z,15.94
2019-04-25T06:31:19.988Z,15.98
2019-04-25T06:33:51.306Z,16.04
2019-04-25T06:36:24.289Z,16.07
2019-04-25T06:38:55.380Z,16.11
2019-04-25T06:41:27.081Z,16.16
2019-04-25T06:44:00.189Z,16.23
2019-04-25T06:46:53.593Z,16.30
2019-04-25T06:49:27.902Z,16.35
2019-04-25T06:51:59.282Z,16.41
2019-04-25T06:54:30.463Z,16.47
2019-04-25T06:57:01.672Z,16.53
2019-04-25T06:59:34.404Z,16.61
2019-04-25T07:02:05.764Z,16.70
2019-04-25T07:04:37.025Z,16.76
2019-04-25T07:07:12.331Z,16.77
2019-04-25T07:09:41.228Z,16.79
2019-04-25T07:12:13.445Z,16.82
2019-04-25T07:14:44.796Z,16.89
2019-04-25T07:17:15.996Z,16.95
2019-04-25T07:19:47.315Z,17.01
2019-04-25T07:22:18.570Z,17.07
2019-04-25T07:24:49.775Z,17.16
2019-04-25T07:27:38.601Z,17.23
2019-04-25T07:30:48.658Z,17.33
2019-04-25T07:33:17.625Z,17.42
2019-04-25T07:35:48.829Z,17.54
2019-04-25T07:38:19.970Z,17.64
2019-04-25T07:40:51.211Z,17.74
2019-04-25T07:43:23.356Z,17.82
2019-04-25T07:45:54.621Z,17.88
2019-04-25T07:48:26.833Z,17.94
2019-04-25T07:50:58.132Z,17.98
2019-04-25T07:53:30.697Z,18.01
2019-04-25T07:56:04.160Z,18.03
2019-04-25T07:58:49.142Z,18.07
2019-04-25T08:01:15.929Z,18.07
2019-04-25T08:03:47.151Z,18.10
2019-04-25T08:06:18.430Z,18.14
2019-04-25T08:08:49.688Z,18.21
2019-04-25T08:11:20.860Z,18.26
2019-04-25T08:14:11.060Z,18.32
2019-04-25T08:16:44.820Z,18.38
2019-04-25T08:19:16.260Z,18.45
2019-04-25T08:21:47.754Z,18.50
2019-04-25T08:24:20.040Z,18.53
2019-04-25T08:26:51.295Z,18.59
2019-04-25T08:29:25.272Z,18.64
2019-04-25T08:31:56.077Z,18.71
2019-04-25T08:34:27.302Z,18.75
2019-04-25T08:36:58.477Z,18.81
2019-04-25T08:39:30.433Z,18.87
2019-04-25T08:42:03.361Z,18.96
2019-04-25T08:44:35.721Z,19.04
2019-04-25T08:47:07.453Z,19.10
2019-04-25T08:49:46.004Z,19.16
2019-04-25T08:52:18.332Z,19.23
2019-04-25T08:55:06.541Z,19.28
2019-04-25T08:57:55.846Z,19.36
2019-04-25T09:01:00.907Z,19.44
2019-04-25T09:03:36.623Z,19.50
2019-04-25T09:06:09.446Z,19.56
2019-04-25T09:08:41.081Z,19.64
2019-04-25T09:11:13.345Z,19.70
2019-04-25T09:13:45.050Z,19.77
2019-04-25T09:16:16.408Z,19.82
2019-04-25T09:18:47.660Z,19.97
2019-04-25T09:21:18.891Z,19.97
2019-04-25T09:23:50.110Z,20.02
2019-04-25T09:26:21.307Z,20.07
2019-04-25T09:28:53.680Z,20.15
2019-04-25T09:31:25.093Z,20.21
2019-04-25T09:33:56.985Z,20.28
2019-04-25T09:36:28.219Z,20.35
2019-04-25T09:39:03.774Z,20.40
2019-04-25T09:41:36.500Z,20.47
2019-04-25T09:44:09.312Z,20.54
2019-04-25T09:46:40.487Z,20.63
2019-04-25T09:49:25.879Z,20.70
2019-04-25T09:52:16.395Z,20.76
2019-04-25T09:54:53.533Z,20.83
2019-04-25T09:57:56.044Z,20.90
2019-04-25T10:00:36.593Z,20.97
2019-04-25T10:03:07.896Z,21.05
2019-04-25T10:05:39.206Z,21.14
2019-04-25T10:08:10.415Z,21.22
2019-04-25T10:10:42.480Z,21.31
2019-04-25T10:13:13.741Z,21.37
2019-04-25T10:16:04.402Z,21.41
2019-04-25T10:18:37.740Z,21.48
2019-04-25T10:21:14.341Z,21.56
2019-04-25T10:23:46.753Z,21.63
2019-04-25T10:26:19.784Z,21.67
2019-04-25T10:28:51.793Z,21.69
2019-04-25T10:31:24.110Z,21.64
2019-04-25T10:33:55.302Z,21.65
2019-04-25T10:36:26.670Z,21.66
2019-04-25T10:39:07.635Z,21.69
2019-04-25T10:41:33.296Z,21.75
2019-04-25T10:44:04.401Z,21.81
2019-04-25T10:46:35.608Z,21.87
2019-04-25T10:49:07.155Z,21.89
2019-04-25T10:51:38.364Z,21.91
2019-04-25T10:54:09.682Z,21.95
2019-04-25T10:56:41.707Z,22.01
2019-04-25T10:59:14.414Z,22.08
2019-04-25T11:01:47.228Z,22.13
2019-04-25T11:04:30.536Z,22.15
2019-04-25T11:07:03.615Z,22.21
2019-04-25T11:09:34.691Z,22.26
2019-04-25T11:12:08.574Z,22.35
2019-04-25T11:14:39.999Z,22.45
2019-04-25T11:17:13.220Z,22.54
2019-04-25T11:19:45.165Z,22.60
2019-04-25T11:22:16.505Z,22.68
2019-04-25T11:24:48.584Z,22.74
2019-04-25T11:27:20.021Z,22.79
2019-04-25T11:29:53.556Z,22.86
2019-04-25T11:32:27.675Z,22.93
2019-04-25T11:34:59.671Z,23.02
2019-04-25T11:37:34.210Z,23.11
2019-04-25T11:40:24.527Z,23.17
2019-04-25T11:42:55.825Z,23.26
2019-04-25T11:45:27.025Z,23.35
2019-04-25T11:47:58.610Z,23.43
2019-04-25T11:50:29.997Z,23.52
2019-04-25T11:53:01.388Z,23.60
2019-04-25T11:55:32.638Z,23.68
2019-04-25T11:58:03.861Z,23.73
2019-04-25T12:00:35.069Z,23.80
2019-04-25T12:03:08.312Z,23.90
2019-04-25T12:05:39.787Z,23.97
2019-04-25T12:08:13.450Z,24.06
2019-04-25T12:10:45.770Z,24.16
2019-04-25T12:13:17.873Z,24.26
2019-04-25T12:15:49.840Z,24.35
2019-04-25T12:18:21.050Z,24.45
2019-04-25T12:20:53.271Z,24.56
2019-04-25T12:23:25.126Z,24.66
2019-04-25T12:25:56.300Z,24.76
2019-04-25T12:28:27.562Z,24.79
2019-04-25T12:30:58.852Z,24.99
2019-04-25T12:33:30.144Z,25.13
2019-04-25T12:36:01.542Z,25.31
2019-04-25T12:38:33.483Z,25.57
2019-04-25T12:41:06.446Z,26.33
2019-04-25T12:43:39.373Z,28.53
2019-04-25T12:46:16.235Z,31.15
2019-04-25T12:48:47.637Z,33.61
2019-04-25T12:51:20.198Z,35.81
2019-04-25T12:53:51.418Z,36.77
2019-04-25T12:56:24.573Z,37.67
2019-04-25T12:58:56.559Z,39.34
2019-04-25T13:01:27.804Z,41.02
2019-04-25T13:03:58.992Z,42.54
2019-04-25T13:06:30.205Z,43.96
2019-04-25T13:09:01.632Z,44.93
2019-04-25T13:11:34.909Z,45.89
2019-04-25T13:14:07.316Z,46.80
2019-04-25T13:16:38.905Z,47.65
2019-04-25T13:19:20.071Z,48.52
2019-04-25T13:21:43.944Z,49.36
2019-04-25T13:24:15.296Z,50.07
2019-04-25T13:26:53.558Z,50.63
2019-04-25T13:29:49.496Z,51.06
2019-04-25T13:32:38.442Z,51.48
2019-04-25T13:35:16.983Z,51.94
2019-04-25T13:37:48.262Z,52.04
2019-04-25T13:40:19.441Z,52.35
2019-04-25T13:42:50.685Z,52.67
2019-04-25T13:45:22.259Z,52.84
2019-04-25T13:47:53.544Z,53.05
2019-04-25T13:50:25.202Z,53.25
2019-04-25T13:52:57.350Z,53.31
2019-04-25T13:55:28.628Z,53.21
2019-04-25T13:57:59.844Z,53.00
2019-04-25T14:00:31.164Z,52.71
2019-04-25T14:03:02.370Z,52.25
2019-04-25T14:05:35.309Z,51.85
2019-04-25T14:08:06.906Z,51.44
2019-04-25T14:10:38.098Z,50.99
2019-04-25T14:13:09.285Z,50.48
2019-04-25T14:15:45.264Z,50.06
2019-04-25T14:18:34.505Z,49.73
2019-04-25T14:21:11.022Z,49.41
2019-04-25T14:23:42.177Z,49.18
2019-04-25T14:26:13.520Z,48.91
2019-04-25T14:28:44.746Z,48.51
2019-04-25T14:31:35.481Z,48.05
2019-04-25T14:33:51.735Z,47.56
2019-04-25T14:36:25.009Z,46.82
2019-04-25T14:38:56.190Z,45.82
2019-04-25T14:41:28.128Z,44.73
2019-04-25T14:43:59.361Z,43.59
2019-04-25T14:46:30.617Z,42.58
2019-04-25T14:49:01.876Z,41.74
2019-04-25T14:51:33.130Z,41.02
2019-04-25T14:54:06.277Z,40.41
2019-04-25T14:56:57.982Z,39.95
2019-04-25T14:59:29.252Z,39.74
2019-04-25T15:02:00.459Z,39.63
2019-04-25T15:04:31.732Z,39.68
2019-04-25T15:07:03.040Z,39.92
2019-04-25T15:09:34.270Z,40.31
2019-04-25T15:12:05.571Z,40.78
2019-04-25T15:14:36.720Z,41.29
2019-04-25T15:17:09.191Z,41.72
2019-04-25T15:19:40.504Z,42.11
2019-04-25T15:22:11.883Z,42.47
2019-04-25T15:24:43.108Z,42.87
2019-04-25T15:27:14.277Z,42.87
2019-04-25T15:29:45.435Z,43.00
2019-04-25T15:32:19.937Z,42.93
2019-04-25T15:34:55.148Z,42.72
2019-04-25T15:37:45.267Z,42.45
2019-04-25T15:40:26.363Z,42.07
2019-04-25T15:43:06.633Z,41.59
2019-04-25T15:46:06.252Z,41.15
2019-04-25T15:48:38.457Z,40.56
2019-04-25T15:51:09.778Z,39.80
2019-04-25T15:53:41.061Z,39.12
2019-04-25T15:56:12.328Z,38.47
2019-04-25T15:58:43.630Z,37.94
2019-04-25T16:01:14.911Z,37.44
2019-04-25T16:03:46.331Z,36.97
2019-04-25T16:06:17.635Z,36.47
2019-04-25T16:08:49.042Z,35.97
2019-04-25T16:11:20.393Z,35.53
2019-04-25T16:13:51.690Z,35.13
2019-04-25T16:16:22.888Z,34.79
2019-04-25T16:18:54.185Z,34.58
2019-04-25T16:21:25.383Z,34.32
2019-04-25T16:23:57.844Z,34.05
2019-04-25T16:26:29.576Z,33.83
2019-04-25T16:29:00.894Z,33.58
2019-04-25T16:31:33.155Z,33.35
2019-04-25T16:34:04.375Z,33.10
2019-04-25T16:36:35.541Z,32.82
2019-04-25T16:39:09.160Z,32.55
2019-04-25T16:41:42.628Z,32.29
2019-04-25T16:44:15.631Z,32.04
2019-04-25T16:46:46.847Z,31.78
2019-04-25T16:49:18.114Z,31.49
2019-04-25T16:51:49.383Z,31.24
2019-04-25T16:54:21.311Z,30.94
2019-04-25T16:56:52.535Z,30.68
2019-04-25T16:59:23.721Z,30.44
2019-04-25T17:01:55.179Z,30.17
2019-04-25T17:04:29.723Z,29.91
2019-04-25T17:07:02.157Z,29.68
2019-04-25T17:09:33.879Z,29.43
2019-04-25T17:12:06.281Z,29.23
2019-04-25T17:14:46.062Z,29.02
2019-04-25T17:17:40.432Z,28.82
2019-04-25T17:20:17.622Z,28.63
2019-04-25T17:22:48.824Z,28.41
2019-04-25T17:25:20.382Z,28.24
2019-04-25T17:27:51.695Z,28.07
2019-04-25T17:30:23.275Z,27.93
2019-04-25T17:33:04.430Z,27.80
2019-04-25T17:35:58.941Z,27.64
2019-04-25T17:38:49.246Z,27.49
2019-04-25T17:41:20.684Z,27.34
2019-04-25T17:43:52.956Z,27.18
2019-04-25T17:46:24.175Z,27.07
2019-04-25T17:48:55.350Z,26.95
2019-04-25T17:51:26.628Z,26.84
2019-04-25T17:53:59.034Z,26.72
2019-04-25T17:56:30.422Z,26.61
2019-04-25T17:59:01.665Z,26.50
2019-04-25T18:01:34.053Z,26.39
2019-04-25T18:04:05.894Z,26.26
2019-04-25T18:06:37.680Z,26.15
2019-04-25T18:09:09.087Z,26.04
2019-04-25T18:11:42.257Z,25.93
2019-04-25T18:14:13.606Z,25.81
2019-04-25T18:16:46.501Z,25.72
2019-04-25T18:19:37.265Z,25.61
2019-04-25T18:22:15.678Z,25.51
2019-04-25T18:25:24.398Z,25.37
2019-04-25T18:28:04.452Z,25.29
2019-04-25T18:30:35.801Z,25.16
2019-04-25T18:33:16.825Z,25.08
2019-04-25T18:35:48.755Z,25.02
2019-04-25T18:38:39.660Z,24.94
2019-04-25T18:41:20.318Z,24.86
2019-04-25T18:43:56.405Z,24.75
2019-04-25T18:46:40.485Z,24.68
2019-04-25T18:49:12.684Z,24.60
2019-04-25T18:51:55.170Z,24.53
2019-04-25T18:54:34.014Z,24.47
2019-04-25T18:57:23.159Z,24.42
2019-04-25T19:00:13.364Z,24.37
2019-04-25T19:03:02.053Z,24.31
2019-04-25T19:05:52.272Z,24.26
2019-04-25T19:08:24.530Z,24.22
2019-04-25T19:10:55.779Z,24.17
2019-04-25T19:13:27.044Z,24.13
2019-04-25T19:15:58.259Z,24.09
2019-04-25T19:18:29.463Z,24.06
2019-04-25T19:21:00.782Z,24.02
2019-04-25T19:23:32.041Z,23.97
2019-04-25T19:26:03.293Z,23.92
2019-04-25T19:28:34.463Z,23.86
2019-04-25T19:31:05.649Z,23.81
2019-04-25T19:33:37.419Z,23.75
2019-04-25T19:36:08.658Z,23.70
2019-04-25T19:38:40.649Z,23.65
2019-04-25T19:41:29.884Z,23.59
2019-04-25T19:44:05.011Z,23.54
2019-04-25T19:46:41.484Z,23.46
2019-04-25T19:49:13.008Z,23.38
2019-04-25T19:51:45.077Z,23.37
2019-04-25T19:54:17.505Z,23.33
2019-04-25T19:56:49.620Z,23.31
2019-04-25T19:59:20.928Z,23.27
2019-04-25T20:01:53.925Z,23.22
2019-04-25T20:04:44.392Z,23.16
2019-04-25T20:07:34.590Z,23.10
2019-04-25T20:10:29.420Z,23.03
2019-04-25T20:13:00.781Z,22.97
2019-04-25T20:15:32.009Z,22.91
2019-04-25T20:18:03.182Z,22.85
2019-04-25T20:20:34.444Z,22.81
2019-04-25T20:23:05.591Z,22.77
2019-04-25T20:25:36.980Z,22.73
2019-04-25T20:28:08.212Z,22.68
2019-04-25T20:30:39.447Z,22.64
2019-04-25T20:33:10.825Z,22.60
2019-04-25T20:35:42.092Z,22.57
2019-04-25T20:38:13.420Z,22.53
2019-04-25T20:40:45.203Z,22.50
2019-04-25T20:43:17.555Z,22.45
2019-04-25T20:45:48.870Z,22.42
2019-04-25T20:48:20.093Z,22.37
2019-04-25T20:50:52.379Z,22.32
2019-04-25T20:53:23.923Z,22.29
2019-04-25T20:55:55.067Z,22.25
2019-04-25T20:58:26.390Z,22.22
2019-04-25T21:00:59.216Z,22.17
2019-04-25T21:03:30.535Z,22.12
2019-04-25T21:06:10.416Z,22.08
2019-04-25T21:08:41.755Z,22.06
2019-04-25T21:11:12.988Z,22.03
2019-04-25T21:14:02.050Z,21.97
2019-04-25T21:16:51.860Z,21.94
2019-04-25T21:19:27.104Z,21.89
2019-04-25T21:21:58.730Z,21.86
2019-04-25T21:24:31.039Z,21.85
2019-04-25T21:27:02.604Z,21.83
2019-04-25T21:29:33.931Z,21.80
2019-04-25T21:32:05.187Z,21.78
2019-04-25T21:34:36.515Z,21.75
2019-04-25T21:37:08.042Z,21.74
2019-04-25T21:39:51.506Z,21.74
2019-04-25T21:42:56.220Z,21.71
2019-04-25T21:45:27.862Z,21.68
2019-04-25T21:47:59.342Z,21.65
2019-04-25T21:50:30.912Z,21.64
2019-04-25T21:53:02.399Z,21.61
2019-04-25T21:55:34.732Z,21.60
2019-04-25T21:58:06.829Z,21.58
2019-04-25T22:00:56.583Z,21.58
2019-04-25T22:03:30.082Z,21.54
2019-04-25T22:06:01.659Z,21.51
2019-04-25T22:08:33.387Z,21.49
2019-04-25T22:11:05.530Z,21.46
2019-04-25T22:13:37.078Z,21.43
2019-04-25T22:16:08.890Z,21.40
2019-04-25T22:18:40.536Z,21.39
2019-04-25T22:21:12.152Z,21.37
2019-04-25T22:23:43.889Z,21.35
2019-04-25T22:26:15.138Z,21.33
2019-04-25T22:28:46.605Z,21.31
2019-04-25T22:31:23.016Z,21.28
2019-04-25T22:34:18.937Z,21.27
2019-04-25T22:36:50.456Z,21.25
2019-04-25T22:39:21.618Z,21.21
2019-04-25T22:41:52.857Z,21.20
2019-04-25T22:44:24.347Z,21.18
2019-04-25T22:46:55.905Z,21.18
2019-04-25T22:49:28.787Z,21.16
2019-04-25T22:52:01.672Z,21.13
2019-04-25T22:54:33.919Z,21.11
2019-04-25T22:57:05.084Z,21.09
2019-04-25T22:59:36.918Z,21.05
2019-04-25T23:02:26.157Z,21.04
2019-04-25T23:05:19.596Z,21.01
2019-04-25T23:07:52.120Z,20.97
2019-04-25T23:10:23.531Z,20.95
2019-04-25T23:12:54.756Z,20.92
2019-04-25T23:15:25.979Z,20.92
2019-04-25T23:17:57.438Z,20.87
2019-04-25T23:20:28.574Z,20.85
2019-04-25T23:22:59.735Z,20.83
2019-04-25T23:25:49.878Z,20.82
2019-04-25T23:28:22.521Z,20.81
2019-04-25T23:31:12.551Z,20.80
2019-04-25T23:33:44.044Z,20.79
2019-04-25T23:36:15.611Z,20.78
2019-04-25T23:38:46.782Z,20.79
2019-04-25T23:41:18.295Z,20.78
2019-04-25T23:43:49.475Z,20.78
2019-04-25T23:46:20.692Z,20.78
2019-04-25T23:48:51.811Z,20.75
2019-04-25T23:51:23.030Z,20.76
2019-04-25T23:53:54.392Z,20.74
2019-04-25T23:56:25.613Z,20.74
2019-04-25T23:58:56.950Z,20.72
